KCRS/CRS METAR and TAF weather

Enter ICAO airport designator
Station Type Date Time Source
KCRS METAR 2021/07/29 01:53 UTC NOAA

KCRS 290153Z AUTO 12003KT 10SM CLR 26/22 A3001 RMK AO2 SLP155 T02560222


Station Type Date Time Source
KCRS Decoded METAR 2021/07/29 01:53 UTC NOAA

CORSICANA AIRFIELD, TX, United States (KCRS) 32-01N 96-23W 133M
Jul 28, 2021 - 09:53 PM EDT / 2021.07.29 0153 UTC
Wind: from the ESE (120 degrees) at 3 MPH (3 KT):0
Visibility: 10 mile(s):0
Sky conditions: clear
Temperature: 78.1 F (25.6 C)
Dew Point: 72.0 F (22.2 C)
Relative Humidity: 81%
Pressure (altimeter): 30.01 in. Hg (1016 hPa)
ob: KCRS 290153Z AUTO 12003KT 10SM CLR 26/22 A3001 RMK AO2 SLP155 T02560222
cycle: 2

Station Type Date Time Source
KCRS TAF UTC NOAA

Error!

Example: see airport list